Time;durP1;ratioP1;P1;durP2;ratioP2;P2;SDS_P1;SDS_P2;PMS_P1;PMS_P2;Temp;Humidity;BMP_temperature;BMP_pressure;BME280_temperature;BME280_humidity;BME280_pressure;Samples;Min_cycle;Max_cycle;Signal;HPM_P1;HPM_P2
2021/12/09 00:02:20;;;;;;;8.60;5.08;;;;;;;0.66;100.00;98743.87;1704316;84;21569;-75
2021/12/09 00:04:47;;;;;;;7.92;5.80;;;;;;;0.63;100.00;98744.76;1704414;84;22179;-74
2021/12/09 00:07:14;;;;;;;7.03;4.62;;;;;;;0.64;100.00;98744.33;1691793;84;21472;-75
2021/12/09 00:09:41;;;;;;;6.85;5.75;;;;;;;0.65;100.00;98748.58;1671462;84;21550;-75
2021/12/09 00:12:08;;;;;;;6.60;5.05;;;;;;;0.64;100.00;98756.69;1704360;84;21468;-75
2021/12/09 00:14:35;;;;;;;7.95;5.90;;;;;;;0.63;100.00;98751.59;1691800;84;20988;-77
2021/12/09 00:17:06;;;;;;;7.67;6.05;;;;;;;0.61;100.00;98759.28;1704373;84;21955;-73
2021/12/09 00:19:33;;;;;;;6.62;5.00;;;;;;;0.63;100.00;98770.78;1691756;84;21035;-72
2021/12/09 00:22:01;;;;;;;6.20;4.47;;;;;;;0.64;100.00;98778.88;1704314;84;21014;-74
2021/12/09 00:24:28;;;;;;;8.45;4.90;;;;;;;0.63;100.00;98779.30;1691911;84;21078;-74
2021/12/09 00:26:55;;;;;;;6.65;4.67;;;;;;;0.61;100.00;98783.59;1704371;84;21011;-74
2021/12/09 00:29:21;;;;;;;6.85;4.78;;;;;;;0.60;100.00;98775.97;1659460;84;21740;-74
2021/12/09 00:31:48;;;;;;;6.47;4.40;;;;;;;0.62;100.00;98777.61;1704205;84;21462;-74
2021/12/09 00:34:16;;;;;;;5.95;4.50;;;;;;;0.62;100.00;98783.16;1691783;84;21440;-74
2021/12/09 00:36:58;;;;;;;6.95;4.35;;;;;;;0.62;100.00;98785.28;1704553;84;21043;-74
2021/12/09 00:39:12;;;;;;;5.85;4.28;;;;;;;0.61;100.00;98786.15;1691065;84;21540;-74
2021/12/09 00:41:38;;;;;;;4.95;3.70;;;;;;;0.59;100.00;98775.12;1671603;84;21733;-74
2021/12/09 00:44:05;;;;;;;6.70;4.55;;;;;;;0.59;100.00;98787.06;1671102;84;21655;-73
2021/12/09 00:46:32;;;;;;;5.33;3.92;;;;;;;0.57;100.00;98792.20;1691837;84;21027;-72
2021/12/09 00:48:58;;;;;;;6.55;4.28;;;;;;;0.57;100.00;98794.76;1704467;84;21114;-72
2021/12/09 00:51:24;;;;;;;5.80;3.87;;;;;;;0.57;100.00;98786.23;1692084;84;21015;-74
2021/12/09 00:53:51;;;;;;;5.15;3.95;;;;;;;0.57;100.00;98786.23;1704303;84;21081;-74
2021/12/09 00:56:18;;;;;;;5.87;4.10;;;;;;;0.55;100.00;98785.41;1691930;84;21045;-74
2021/12/09 00:58:44;;;;;;;5.87;4.15;;;;;;;0.54;100.00;98782.43;1704235;83;21050;-74
2021/12/09 01:01:11;;;;;;;5.67;4.42;;;;;;;0.55;100.00;98784.97;1704284;84;21054;-74
2021/12/09 01:03:38;;;;;;;5.35;4.08;;;;;;;0.60;100.00;98785.73;1659705;84;21035;-72
2021/12/09 01:06:05;;;;;;;5.03;4.00;;;;;;;0.65;100.00;98783.97;1674037;84;21088;-73
2021/12/09 01:08:31;;;;;;;7.67;4.17;;;;;;;0.68;100.00;98781.81;1671208;84;21039;-73
2021/12/09 01:10:58;;;;;;;5.33;3.85;;;;;;;0.69;100.00;98783.51;1691830;84;21086;-74
2021/12/09 01:13:24;;;;;;;6.10;3.77;;;;;;;0.71;100.00;98779.65;1672786;84;21006;-73
2021/12/09 01:15:51;;;;;;;5.72;4.97;;;;;;;0.75;100.00;98783.88;1671437;84;21589;-73
2021/12/09 01:18:17;;;;;;;5.97;4.28;;;;;;;0.73;100.00;98775.36;1671295;84;21861;-73
2021/12/09 01:20:44;;;;;;;7.20;4.67;;;;;;;0.71;100.00;98775.81;1659454;84;21459;-73
2021/12/09 01:23:11;;;;;;;7.35;5.15;;;;;;;0.68;100.00;98780.10;1671396;84;21082;-73
2021/12/09 01:25:38;;;;;;;7.10;5.40;;;;;;;0.67;100.00;98777.56;1672832;84;20990;-73
2021/12/09 01:28:17;;;;;;;7.08;5.00;;;;;;;0.66;100.00;98779.70;1671557;84;21507;-73
2021/12/09 01:30:38;;;;;;;5.30;4.00;;;;;;;0.65;100.00;98781.41;1666957;84;21047;-73
2021/12/09 01:33:06;;;;;;;6.08;4.75;;;;;;;0.68;100.00;98777.97;1695253;84;21460;-74
2021/12/09 01:35:34;;;;;;;6.35;4.47;;;;;;;0.70;100.00;98781.36;1695494;84;20975;-74
2021/12/09 01:38:08;;;;;;;5.47;4.37;;;;;;;0.71;100.00;98780.50;1695216;84;21590;-74
2021/12/09 01:40:31;;;;;;;5.53;4.35;;;;;;;0.64;100.00;98773.32;1671862;84;21062;-74
2021/12/09 01:42:58;;;;;;;5.90;3.87;;;;;;;0.65;100.00;98780.13;1695328;84;21118;-73
2021/12/09 01:45:25;;;;;;;5.42;3.90;;;;;;;0.67;100.00;98777.12;1695373;84;20991;-73
2021/12/09 01:47:53;;;;;;;6.65;4.28;;;;;;;0.68;100.00;98783.09;1695231;84;21074;-73
2021/12/09 01:50:38;;;;;;;5.20;3.85;;;;;;;0.71;100.00;98779.22;1695236;84;21106;-73
2021/12/09 01:53:07;;;;;;;5.05;4.03;;;;;;;0.69;100.00;98784.78;1695321;84;21491;-73
2021/12/09 01:55:34;;;;;;;4.80;3.65;;;;;;;0.71;100.00;98786.05;1666830;84;21017;-73
2021/12/09 01:58:01;;;;;;;4.83;3.40;;;;;;;0.72;100.00;98780.91;1666400;84;21079;-73
2021/12/09 02:00:29;;;;;;;5.08;3.47;;;;;;;0.72;100.00;98787.74;1695244;84;20967;-72
2021/12/09 02:02:56;;;;;;;6.78;4.30;;;;;;;0.73;100.00;98785.16;1666530;84;20999;-73
2021/12/09 02:05:23;;;;;;;6.00;4.50;;;;;;;0.73;100.00;98780.48;1666479;84;21127;-72
2021/12/09 02:07:50;;;;;;;4.83;3.50;;;;;;;0.75;100.00;98781.31;1695219;84;21031;-72
2021/12/09 02:10:18;;;;;;;4.55;3.00;;;;;;;0.74;100.00;98781.74;1666731;84;21017;-73
2021/12/09 02:12:48;;;;;;;4.35;3.55;;;;;;;0.69;100.00;98788.19;1695218;84;20991;-74
2021/12/09 02:15:18;;;;;;;4.87;3.62;;;;;;;0.65;100.00;98786.53;1695466;84;21024;-73
2021/12/09 02:17:45;;;;;;;5.42;3.47;;;;;;;0.66;100.00;98792.50;1666460;84;21485;-73
2021/12/09 02:20:12;;;;;;;4.78;3.55;;;;;;;0.67;100.00;98787.80;1666805;84;21792;-73
2021/12/09 02:22:38;;;;;;;4.75;3.58;;;;;;;0.65;100.00;98795.49;1695447;84;21612;-73
2021/12/09 02:25:06;;;;;;;4.65;3.25;;;;;;;0.65;100.00;98792.93;1695206;84;21452;-73
2021/12/09 02:27:34;;;;;;;4.85;3.40;;;;;;;0.65;100.00;98795.92;1695195;84;21019;-73
2021/12/09 02:30:00;;;;;;;3.92;3.37;;;;;;;0.63;100.00;98801.06;1695433;84;21039;-73
2021/12/09 02:32:26;;;;;;;4.65;3.60;;;;;;;0.63;100.00;98801.06;1659909;84;21043;-73
2021/12/09 02:34:53;;;;;;;4.22;3.55;;;;;;;0.64;100.00;98805.74;1704406;84;21019;-72
2021/12/09 02:37:20;;;;;;;4.62;3.47;;;;;;;0.65;100.00;98810.00;1662980;84;21087;-73
2021/12/09 02:39:46;;;;;;;4.83;3.45;;;;;;;0.70;100.00;98814.63;1704389;84;20986;-73
2021/12/09 02:42:13;;;;;;;4.50;3.83;;;;;;;0.71;100.00;98814.20;1704428;84;20991;-73
2021/12/09 02:44:39;;;;;;;4.25;3.17;;;;;;;0.74;100.00;98811.17;1671324;84;21159;-73
2021/12/09 02:47:06;;;;;;;4.92;3.30;;;;;;;0.79;100.00;98820.09;1704392;84;20975;-73
2021/12/09 02:49:34;;;;;;;3.80;3.42;;;;;;;0.82;100.00;98816.18;1704461;84;21510;-74
2021/12/09 02:52:02;;;;;;;4.10;3.40;;;;;;;0.87;100.00;98814.41;1691895;84;21530;-73
2021/12/09 02:54:29;;;;;;;4.45;3.75;;;;;;;0.92;100.00;98817.34;1704416;84;21578;-73
2021/12/09 02:56:59;;;;;;;5.40;3.62;;;;;;;0.96;100.00;98816.44;1704379;84;21873;-73
2021/12/09 02:59:27;;;;;;;5.42;3.60;;;;;;;0.98;100.00;98822.81;1691736;84;21036;-73
2021/12/09 03:01:57;;;;;;;5.58;4.00;;;;;;;0.93;100.00;98817.75;1704455;84;21043;-73
2021/12/09 03:04:47;;;;;;;5.10;3.80;;;;;;;0.91;100.00;98825.03;1704389;84;21042;-73
2021/12/09 03:07:31;;;;;;;6.97;3.98;;;;;;;0.89;100.00;98829.33;1691905;84;20992;-73
2021/12/09 03:10:02;;;;;;;4.53;3.72;;;;;;;0.93;100.00;98833.55;1674152;84;21039;-73
2021/12/09 03:12:34;;;;;;;4.78;3.50;;;;;;;0.95;100.00;98829.25;1702128;84;21075;-73
2021/12/09 03:15:03;;;;;;;6.47;4.77;;;;;;;0.93;100.00;98830.98;1692349;84;21076;-73
2021/12/09 03:17:31;;;;;;;6.65;5.08;;;;;;;0.91;100.00;98832.72;1671263;84;21543;-73
2021/12/09 03:19:57;;;;;;;6.28;4.35;;;;;;;0.90;100.00;98841.27;1671355;84;21448;-73
2021/12/09 03:22:24;;;;;;;7.22;4.22;;;;;;;0.92;100.00;98843.37;1704334;84;21202;-73
2021/12/09 03:24:51;;;;;;;5.97;4.10;;;;;;;0.93;100.00;98839.52;1691842;84;20988;-73
2021/12/09 03:27:18;;;;;;;5.33;4.45;;;;;;;0.97;100.00;98842.89;1704412;84;21825;-73
2021/12/09 03:29:44;;;;;;;6.35;4.90;;;;;;;1.00;100.00;98845.38;1671401;84;21011;-73
2021/12/09 03:32:15;;;;;;;4.58;3.92;;;;;;;1.05;100.00;98856.42;1691772;84;21094;-72
2021/12/09 03:34:43;;;;;;;4.55;3.35;;;;;;;1.05;100.00;98850.02;1704432;84;21141;-73
2021/12/09 03:37:17;;;;;;;5.22;3.90;;;;;;;1.02;100.00;98847.48;1691841;84;20996;-72
2021/12/09 03:39:43;;;;;;;5.22;4.20;;;;;;;1.00;100.00;98844.09;1704429;84;21019;-73
2021/12/09 03:42:13;;;;;;;5.12;3.83;;;;;;;0.97;100.00;98847.58;1659670;84;21038;-72
2021/12/09 03:44:41;;;;;;;4.83;3.47;;;;;;;0.95;100.00;98845.90;1704616;84;21109;-72
2021/12/09 03:47:09;;;;;;;4.75;3.83;;;;;;;0.93;100.00;98848.48;1691795;84;21559;-73
2021/12/09 03:49:36;;;;;;;5.58;4.30;;;;;;;0.94;100.00;98853.16;1674407;84;20979;-72
2021/12/09 03:52:04;;;;;;;4.72;4.22;;;;;;;0.93;100.00;98854.03;1691859;84;21054;-72
2021/12/09 03:54:30;;;;;;;5.00;4.03;;;;;;;0.92;100.00;98857.45;1704616;84;21042;-72
2021/12/09 03:56:57;;;;;;;5.42;3.95;;;;;;;0.95;100.00;98862.54;1704404;84;21030;-72
2021/12/09 03:59:23;;;;;;;5.20;4.08;;;;;;;0.97;100.00;98860.81;1691875;84;21124;-72
2021/12/09 04:01:50;;;;;;;5.08;3.87;;;;;;;0.95;100.00;98869.79;1704255;84;21027;-72
2021/12/09 04:04:16;;;;;;;5.15;3.85;;;;;;;0.97;100.00;98871.05;1704393;84;21009;-72
2021/12/09 04:06:45;;;;;;;5.55;4.10;;;;;;;1.01;100.00;98872.25;1704335;84;21036;-72
2021/12/09 04:09:14;;;;;;;5.05;4.10;;;;;;;1.06;100.00;98874.76;1691808;84;21087;-72
2021/12/09 04:11:41;;;;;;;5.65;4.03;;;;;;;1.08;100.00;98876.88;1704397;84;21027;-72
2021/12/09 04:14:08;;;;;;;5.87;4.62;;;;;;;1.12;100.00;98877.25;1691735;84;20986;-72
2021/12/09 04:16:35;;;;;;;5.05;4.15;;;;;;;1.09;100.00;98871.31;1704306;84;21023;-73
2021/12/09 04:19:02;;;;;;;5.53;4.70;;;;;;;1.07;100.00;98882.01;1692088;84;21035;-72
2021/12/09 04:21:29;;;;;;;5.35;4.22;;;;;;;1.03;100.00;98880.77;1704357;84;21046;-72
2021/12/09 04:23:56;;;;;;;5.78;4.75;;;;;;;1.00;100.00;98877.39;1692087;84;21500;-72
2021/12/09 04:26:22;;;;;;;7.67;4.50;;;;;;;0.99;100.00;98874.45;1671276;84;21030;-72
2021/12/09 04:28:49;;;;;;;5.45;4.15;;;;;;;1.00;100.00;98873.55;1659394;84;21058;-72
2021/12/09 04:31:16;;;;;;;4.83;4.05;;;;;;;0.99;100.00;98874.02;1704243;84;21034;-72
2021/12/09 04:33:44;;;;;;;5.67;4.28;;;;;;;0.98;100.00;98871.47;1704431;84;20978;-72
2021/12/09 04:36:10;;;;;;;5.40;4.42;;;;;;;0.99;100.00;98871.45;1704437;84;21139;-72
2021/12/09 04:38:37;;;;;;;4.67;3.85;;;;;;;1.01;100.00;98878.66;1659517;84;20984;-72
2021/12/09 04:41:03;;;;;;;5.53;4.22;;;;;;;0.99;100.00;98881.70;1704390;84;21007;-72
2021/12/09 04:43:32;;;;;;;6.12;4.80;;;;;;;0.96;100.00;98890.69;1691751;83;21535;-72
2021/12/09 04:45:59;;;;;;;7.53;4.53;;;;;;;0.97;100.00;98888.55;1704373;84;21010;-72
2021/12/09 04:48:26;;;;;;;6.58;4.67;;;;;;;0.99;100.00;98900.90;1691772;84;21542;-72
2021/12/09 04:50:52;;;;;;;5.53;4.12;;;;;;;0.99;100.00;98904.73;1704287;84;20962;-72
2021/12/09 04:53:19;;;;;;;7.70;4.67;;;;;;;1.02;100.00;98896.99;1704546;84;21078;-71
2021/12/09 04:55:45;;;;;;;6.90;4.95;;;;;;;1.04;100.00;98896.98;1672992;84;20978;-71
2021/12/09 04:58:11;;;;;;;5.62;5.03;;;;;;;1.04;100.00;98910.63;1691872;83;21082;-72
2021/12/09 05:00:38;;;;;;;5.75;4.62;;;;;;;1.05;100.00;98914.04;1671359;84;22154;-72
2021/12/09 05:03:09;;;;;;;6.30;4.72;;;;;;;1.02;100.00;98914.07;1659507;84;20975;-71
2021/12/09 05:05:44;;;;;;;6.20;4.78;;;;;;;1.07;100.00;98921.70;1704396;84;21025;-71
2021/12/09 05:08:15;;;;;;;5.72;4.72;;;;;;;1.09;100.00;98924.67;1704061;84;21506;-71
2021/12/09 05:13:18;;;;;;;6.37;4.30;;;;;;;1.11;100.00;98929.34;1691860;84;21148;-71
2021/12/09 05:15:45;;;;;;;7.47;4.55;;;;;;;1.17;100.00;98933.55;1671385;84;21018;-71
2021/12/09 05:18:13;;;;;;;4.62;3.95;;;;;;;1.19;100.00;98931.82;1663118;84;21031;-71
2021/12/09 05:20:39;;;;;;;5.55;4.35;;;;;;;1.18;100.00;98940.37;1672847;84;21062;-71
2021/12/09 05:23:05;;;;;;;5.42;4.55;;;;;;;1.18;100.00;98942.50;1692161;84;20995;-71
2021/12/09 05:25:32;;;;;;;6.28;4.72;;;;;;;1.19;100.00;98949.31;1671210;84;21134;-70
2021/12/09 05:27:59;;;;;;;5.85;4.42;;;;;;;1.22;100.00;98947.13;1704357;84;21070;-71
2021/12/09 05:30:38;;;;;;;5.25;4.62;;;;;;;1.23;100.00;98949.67;1704604;84;20982;-72
2021/12/09 05:32:54;;;;;;;5.37;4.50;;;;;;;1.25;100.00;98950.50;1686502;84;21044;-71
2021/12/09 05:35:21;;;;;;;6.10;4.65;;;;;;;1.30;100.00;98953.02;1703119;84;21451;-71
2021/12/09 05:37:48;;;;;;;6.08;4.85;;;;;;;1.30;100.00;98960.27;1702777;84;21531;-71
2021/12/09 05:40:15;;;;;;;6.37;4.62;;;;;;;1.31;100.00;98962.39;1674379;84;20940;-71
2021/12/09 05:42:42;;;;;;;5.37;4.45;;;;;;;1.31;100.00;98959.83;1702868;84;21491;-70
2021/12/09 05:45:09;;;;;;;5.40;4.67;;;;;;;1.34;100.00;98962.36;1703087;84;20971;-72
2021/12/09 05:47:35;;;;;;;6.17;4.50;;;;;;;1.37;100.00;98958.48;1673854;84;20939;-72
2021/12/09 05:50:02;;;;;;;4.72;3.98;;;;;;;1.40;100.00;98958.88;1703092;84;21112;-72
2021/12/09 05:52:29;;;;;;;5.05;4.25;;;;;;;1.41;100.00;98960.11;1673833;84;21074;-72
2021/12/09 05:54:55;;;;;;;6.22;4.75;;;;;;;1.41;100.00;98963.11;1703105;84;20939;-71
2021/12/09 05:57:21;;;;;;;6.90;5.75;;;;;;;1.41;100.00;98970.36;1703026;83;21092;-71
2021/12/09 05:59:48;;;;;;;6.17;5.22;;;;;;;1.38;100.00;98969.15;1673738;84;20940;-71
2021/12/09 06:02:16;;;;;;;6.78;5.03;;;;;;;1.37;100.00;98975.14;1701346;83;21135;-71
2021/12/09 06:04:43;;;;;;;5.80;4.90;;;;;;;1.37;100.00;98968.73;1667517;84;20978;-71
2021/12/09 06:07:11;;;;;;;6.80;6.00;;;;;;;1.38;100.00;98975.13;1702948;83;21049;-74
2021/12/09 06:09:38;;;;;;;7.40;5.33;;;;;;;1.36;100.00;98976.85;1702900;83;20988;-71
2021/12/09 06:12:09;;;;;;;7.20;5.42;;;;;;;1.32;100.00;98979.47;1702937;84;21054;-72
2021/12/09 06:14:36;;;;;;;6.15;4.35;;;;;;;1.28;100.00;98981.21;1679989;84;21705;-72
2021/12/09 06:17:05;;;;;;;6.35;4.70;;;;;;;1.28;100.00;98987.61;1704193;84;21022;-72
2021/12/09 06:19:32;;;;;;;5.47;4.50;;;;;;;1.26;100.00;98989.77;1675349;84;21064;-73
2021/12/09 06:21:59;;;;;;;4.47;4.05;;;;;;;1.20;100.00;98985.56;1675340;84;21050;-72
2021/12/09 06:24:26;;;;;;;6.83;4.35;;;;;;;1.21;100.00;98985.13;1679828;84;20979;-71
2021/12/09 06:26:52;;;;;;;6.25;4.72;;;;;;;1.22;100.00;98991.52;1704051;83;21765;-72
2021/12/09 06:29:19;;;;;;;8.23;6.87;;;;;;;1.23;100.00;98998.77;1701343;83;21089;-72
2021/12/09 06:31:45;;;;;;;5.35;4.75;;;;;;;1.22;100.00;98998.35;1700876;83;21117;-71
2021/12/09 06:34:12;;;;;;;6.50;5.47;;;;;;;1.25;100.00;99005.58;1703740;84;21013;-71
2021/12/09 06:36:41;;;;;;;4.47;4.05;;;;;;;1.26;100.00;99007.70;1676209;84;21053;-72
2021/12/09 06:39:12;;;;;;;5.12;3.87;;;;;;;1.27;100.00;99010.25;1682310;84;22162;-72
2021/12/09 06:41:38;;;;;;;6.10;5.05;;;;;;;1.29;100.00;99010.23;1701732;84;21012;-71
2021/12/09 06:44:06;;;;;;;4.95;4.45;;;;;;;1.32;100.00;99008.50;1702879;83;20991;-71
2021/12/09 06:46:32;;;;;;;4.65;3.55;;;;;;;1.33;100.00;99010.19;1703600;83;21481;-72
2021/12/09 06:49:01;;;;;;;3.58;3.05;;;;;;;1.32;100.00;99015.33;1703827;84;21057;-71
2021/12/09 06:51:27;;;;;;;5.45;4.55;;;;;;;1.32;100.00;99007.64;1702721;84;21784;-72
2021/12/09 06:53:54;;;;;;;6.53;4.03;;;;;;;1.30;100.00;99009.38;1703950;84;20957;-71
2021/12/09 06:56:20;;;;;;;5.20;3.60;;;;;;;1.31;100.00;99010.64;1703703;83;21049;-73
2021/12/09 06:58:47;;;;;;;5.35;3.87;;;;;;;1.35;100.00;99020.42;1682540;83;21058;-71
2021/12/09 07:01:14;;;;;;;5.35;3.75;;;;;;;1.36;100.00;99024.25;1704142;84;21038;-71
2021/12/09 07:03:41;;;;;;;5.72;3.55;;;;;;;1.38;100.00;99028.08;1679308;84;21747;-71
2021/12/09 07:06:11;;;;;;;7.12;6.10;;;;;;;1.42;100.00;99031.00;1704247;83;20934;-73
2021/12/09 07:08:43;;;;;;;5.50;4.22;;;;;;;1.45;100.00;99029.69;1689021;84;20950;-72
2021/12/09 07:11:06;;;;;;;5.65;4.03;;;;;;;1.51;100.00;99032.19;1700628;84;21010;-72
2021/12/09 07:13:33;;;;;;;5.80;4.20;;;;;;;1.53;100.00;99025.76;1702790;84;21014;-73
2021/12/09 07:16:01;;;;;;;5.90;5.00;;;;;;;1.53;100.00;99034.73;1703571;83;21093;-72
2021/12/09 07:18:27;;;;;;;5.30;4.45;;;;;;;1.50;100.00;99028.36;1703050;84;21041;-72
2021/12/09 07:20:54;;;;;;;3.87;3.42;;;;;;;1.47;100.00;99033.52;1701990;84;22110;-73
2021/12/09 07:23:21;;;;;;;5.28;3.50;;;;;;;1.39;100.00;99031.06;1678961;84;21009;-73
2021/12/09 07:25:48;;;;;;;7.03;6.30;;;;;;;1.29;100.00;99031.58;1666178;83;21085;-74
2021/12/09 07:28:14;;;;;;;5.30;4.47;;;;;;;1.24;100.00;99038.46;1702241;84;21789;-74
2021/12/09 07:30:42;;;;;;;5.85;4.67;;;;;;;1.24;100.00;99033.77;1702658;84;21002;-74
2021/12/09 07:33:08;;;;;;;5.47;4.62;;;;;;;1.23;100.00;99034.63;1702074;84;20932;-73
2021/12/09 07:35:35;;;;;;;6.80;4.75;;;;;;;1.20;100.00;99037.26;1673693;84;20976;-72
2021/12/09 07:38:03;;;;;;;6.22;4.75;;;;;;;1.17;100.00;99042.41;1702198;84;21502;-74
2021/12/09 07:40:30;;;;;;;6.65;4.72;;;;;;;1.16;100.00;99044.55;1672701;83;21491;-72
2021/12/09 07:42:57;;;;;;;5.55;4.30;;;;;;;1.18;100.00;99059.47;1702120;84;21062;-73
2021/12/09 07:45:24;;;;;;;6.12;4.62;;;;;;;1.22;100.00;99058.55;1702387;84;21002;-72
2021/12/09 07:47:50;;;;;;;6.72;4.50;;;;;;;1.25;100.00;99060.66;1702894;84;21027;-72
2021/12/09 07:50:20;;;;;;;10.15;6.90;;;;;;;1.31;100.00;99067.44;1699480;82;21069;-77
2021/12/09 07:52:48;;;;;;;7.60;5.22;;;;;;;1.35;100.00;99067.83;1700365;83;21129;-72
2021/12/09 07:55:16;;;;;;;8.18;5.25;;;;;;;1.38;100.00;99068.64;1701092;84;21459;-72
2021/12/09 07:57:43;;;;;;;6.17;4.45;;;;;;;1.44;100.00;99075.83;1702847;82;22049;-74
2021/12/09 08:00:20;;;;;;;7.58;4.92;;;;;;;1.44;100.00;99079.23;1703431;83;20985;-73
2021/12/09 08:02:47;;;;;;;8.18;5.33;;;;;;;1.46;100.00;99074.09;1702473;82;21489;-72
2021/12/09 08:05:14;;;;;;;5.95;4.42;;;;;;;1.48;100.00;99074.50;1704167;84;21399;-72
2021/12/09 08:07:43;;;;;;;7.00;4.65;;;;;;;1.52;100.00;99085.14;1673889;84;21018;-71
2021/12/09 08:10:14;;;;;;;6.25;4.80;;;;;;;1.51;100.00;99083.88;1703936;84;21035;-71
2021/12/09 08:12:40;;;;;;;6.35;4.92;;;;;;;1.52;100.00;99085.57;1703459;84;21159;-72
2021/12/09 08:15:10;;;;;;;8.98;6.03;;;;;;;1.53;100.00;99082.99;1703488;84;20954;-72
2021/12/09 08:20:06;;;;;;;8.55;4.60;;;;;;;1.58;100.00;99084.23;1702587;84;21049;-73
2021/12/09 08:22:36;;;;;;;6.72;4.85;;;;;;;1.56;100.00;99076.55;1703538;84;21009;-73
2021/12/09 08:25:07;;;;;;;6.65;4.65;;;;;;;1.51;100.00;99087.28;1707304;83;21114;-72
2021/12/09 08:27:36;;;;;;;8.83;5.60;;;;;;;1.47;100.00;99086.05;1703702;84;20950;-71
2021/12/09 08:30:07;;;;;;;10.48;7.33;;;;;;;1.42;100.00;99082.67;1703453;84;21469;-71
2021/12/09 08:32:34;;;;;;;8.98;6.58;;;;;;;1.45;100.00;99081.37;1703244;82;21554;-71
2021/12/09 08:35:02;;;;;;;7.33;6.00;;;;;;;1.47;100.00;99081.77;1667078;84;21062;-72
2021/12/09 08:37:30;;;;;;;15.08;13.00;;;;;;;1.47;100.00;99080.92;1677015;84;21123;-73
2021/12/09 08:39:57;;;;;;;8.18;7.22;;;;;;;1.46;100.00;99081.78;1697178;84;20963;-70
2021/12/09 08:42:24;;;;;;;14.80;12.80;;;;;;;1.47;100.00;99081.77;1720478;83;22224;-71
2021/12/09 08:44:53;;;;;;;9.78;8.78;;;;;;;1.49;100.00;99081.76;1700555;84;21449;-74
2021/12/09 08:47:20;;;;;;;11.53;9.23;;;;;;;1.50;100.00;99088.15;1694674;83;21077;-72
2021/12/09 08:49:47;;;;;;;8.20;5.83;;;;;;;1.53;100.00;99087.27;1700983;83;21447;-70
2021/12/09 08:52:14;;;;;;;7.58;5.58;;;;;;;1.55;100.00;99093.23;1710760;83;20952;-72
2021/12/09 08:54:42;;;;;;;7.85;5.50;;;;;;;1.54;100.00;99094.09;1710982;83;21492;-70
2021/12/09 08:57:11;;;;;;;8.70;7.25;;;;;;;1.51;100.00;99087.28;1707820;83;38614;-74
2021/12/09 08:59:37;;;;;;;7.72;6.90;;;;;;;1.49;100.00;99081.76;1693486;84;21558;-72
2021/12/09 09:02:05;;;;;;;9.03;6.80;;;;;;;1.51;100.00;99083.88;1721781;83;21109;-73
2021/12/09 09:04:32;;;;;;;8.08;5.47;;;;;;;1.53;100.00;99081.71;1715712;83;21713;-74
2021/12/09 09:07:01;;;;;;;6.15;5.00;;;;;;;1.56;100.00;99076.55;1678113;83;21413;-73
2021/12/09 09:09:33;;;;;;;5.65;4.75;;;;;;;1.56;100.00;99076.55;1715345;83;21597;-73
2021/12/09 09:11:57;;;;;;;7.22;6.00;;;;;;;1.57;100.00;99079.53;1684954;83;21070;-72
2021/12/09 09:14:25;;;;;;;9.13;5.83;;;;;;;1.58;100.00;99078.67;1715337;83;21077;-72
2021/12/09 09:16:52;;;;;;;7.70;5.40;;;;;;;1.61;100.00;99081.61;1711884;83;21055;-71
2021/12/09 09:19:20;;;;;;;8.63;6.00;;;;;;;1.63;100.00;99079.88;1713261;83;21511;-72
2021/12/09 09:21:47;;;;;;;7.80;5.75;;;;;;;1.63;100.00;99074.75;1719592;83;20999;-69
2021/12/09 09:24:14;;;;;;;6.92;4.90;;;;;;;1.63;100.00;99075.59;1712393;83;21003;-75
2021/12/09 09:26:41;;;;;;;7.47;5.65;;;;;;;1.68;100.00;99072.98;1711582;83;21063;-72
2021/12/09 09:29:08;;;;;;;12.18;5.30;;;;;;;1.70;100.00;99081.51;1707862;84;21614;-74
2021/12/09 09:31:40;;;;;;;7.72;5.20;;;;;;;1.67;100.00;99075.98;1708091;84;21925;-73
2021/12/09 09:34:06;;;;;;;7.33;5.53;;;;;;;1.65;100.00;99073.02;1703867;83;20947;-74
2021/12/09 09:36:39;;;;;;;6.87;5.70;;;;;;;1.61;100.00;99078.61;1685908;83;21569;-72
2021/12/09 09:39:17;;;;;;;11.25;7.65;;;;;;;1.59;100.00;99079.52;1689381;84;21045;-72
2021/12/09 09:41:37;;;;;;;10.72;6.42;;;;;;;1.58;100.00;99080.39;1659339;84;21036;-70
2021/12/09 09:44:16;;;;;;;8.75;5.67;;;;;;;1.58;100.00;99079.95;1708258;83;21744;-80
2021/12/09 09:46:42;;;;;;;10.78;5.33;;;;;;;1.63;100.00;99070.90;1702449;83;21081;-73
2021/12/09 09:49:09;;;;;;;11.15;6.60;;;;;;;1.69;100.00;99074.25;1687376;83;21106;-75
2021/12/09 09:51:37;;;;;;;10.28;6.25;;;;;;;1.75;100.00;99068.64;1660065;85;22122;-74
2021/12/09 09:54:05;;;;;;;7.35;5.70;;;;;;;1.78;100.00;99064.77;1673948;85;21038;-73
2021/12/09 09:56:34;;;;;;;8.35;5.45;;;;;;;1.80;100.00;99067.69;1672704;85;21185;-71
2021/12/09 09:59:05;;;;;;;24.02;21.62;;;;;;;1.76;100.00;99063.93;1703106;82;21641;-74
2021/12/09 10:01:35;;;;;;;16.25;13.58;;;;;;;1.75;100.00;99063.08;1701425;84;20991;-74
2021/12/09 10:04:10;;;;;;;10.95;8.75;;;;;;;1.79;100.00;99062.61;1673760;83;21028;-71
2021/12/09 10:06:41;;;;;;;20.65;18.52;;;;;;;1.81;100.00;99065.98;1703534;84;21007;-72
2021/12/09 10:09:08;;;;;;;12.65;7.47;;;;;;;1.83;100.00;99061.68;1704738;84;21097;-74
2021/12/09 10:11:37;;;;;;;18.05;16.15;;;;;;;1.86;100.00;99059.93;1704179;83;21046;-74
2021/12/09 10:14:19;;;;;;;11.35;10.15;;;;;;;1.89;100.00;99061.18;1704673;84;21050;-74
2021/12/09 10:16:49;;;;;;;9.63;8.18;;;;;;;1.93;100.00;99048.73;1685173;84;21063;-75
2021/12/09 10:19:29;;;;;;;8.18;6.67;;;;;;;1.93;100.00;99052.58;1655280;84;21060;-76
2021/12/09 10:22:12;;;;;;;10.82;8.65;;;;;;;1.96;100.00;99047.42;1689443;84;21142;-72
2021/12/09 10:24:45;;;;;;;8.03;5.85;;;;;;;1.99;100.00;99052.95;1675619;84;21014;-73
2021/12/09 10:27:25;;;;;;;10.68;7.40;;;;;;;1.97;100.00;99058.09;1703069;84;21006;-74
2021/12/09 10:29:47;;;;;;;12.05;8.80;;;;;;;1.90;100.00;99055.19;1689879;84;21051;-74
2021/12/09 10:32:25;;;;;;;15.90;12.78;;;;;;;1.86;100.00;99061.21;1705080;84;21022;-75
2021/12/09 10:34:51;;;;;;;16.60;9.38;;;;;;;1.91;100.00;99062.44;1681492;84;21510;-75
2021/12/09 10:37:29;;;;;;;13.75;8.70;;;;;;;1.95;100.00;99053.84;1680248;84;21062;-75
2021/12/09 10:40:08;;;;;;;11.33;8.93;;;;;;;1.98;100.00;99053.38;1708913;83;21516;-74
2021/12/09 10:42:51;;;;;;;10.70;8.80;;;;;;;2.00;100.00;99055.45;1706124;83;21051;-74
2021/12/09 10:45:25;;;;;;;11.15;8.90;;;;;;;2.07;100.00;99060.92;1706359;83;21099;-74
2021/12/09 10:48:05;;;;;;;9.75;8.43;;;;;;;2.13;100.00;99059.16;1707207;83;21930;-73
2021/12/09 10:50:40;;;;;;;10.98;8.18;;;;;;;2.18;100.00;99059.52;1711334;83;21414;-74
2021/12/09 10:53:31;;;;;;;14.07;8.20;;;;;;;2.23;100.00;99060.27;1682765;83;21017;-74
2021/12/09 10:56:10;;;;;;;18.50;13.18;;;;;;;2.30;100.00;99064.45;1707983;83;21060;-74
2021/12/09 10:58:43;;;;;;;16.90;14.60;;;;;;;2.33;100.00;99059.28;1708831;82;21405;-74
2021/12/09 11:01:16;;;;;;;19.45;15.38;;;;;;;2.38;100.00;99056.22;1710724;83;21185;-74
2021/12/09 11:03:56;;;;;;;11.50;9.80;;;;;;;2.43;100.00;99052.27;1698226;82;21074;-75
2021/12/09 11:06:30;;;;;;;14.15;10.70;;;;;;;2.47;100.00;99051.36;1647711;85;21057;-75
2021/12/09 11:08:59;;;;;;;16.17;10.03;;;;;;;2.48;100.00;99056.91;1693758;84;21074;-75
2021/12/09 11:11:41;;;;;;;13.45;9.93;;;;;;;2.51;100.00;99061.15;1648479;85;21081;-75
2021/12/09 11:14:12;;;;;;;15.53;13.50;;;;;;;2.57;100.00;99063.63;1704457;82;21514;-74
2021/12/09 11:16:51;;;;;;;23.13;19.00;;;;;;;2.59;100.00;99067.03;1685191;84;21061;-76
2021/12/09 11:19:48;;;;;;;29.15;19.57;;;;;;;2.61;100.00;99066.09;1715482;82;21042;-76
2021/12/09 11:22:01;;;;;;;18.48;12.90;;;;;;;2.67;100.00;99068.58;1705605;82;21565;-74
2021/12/09 11:24:35;;;;;;;20.57;15.63;;;;;;;2.78;100.00;99066.29;1714161;82;21665;-75
2021/12/09 11:27:09;;;;;;;13.05;10.98;;;;;;;2.90;100.00;99067.36;1710337;82;21323;-73
2021/12/09 11:29:45;;;;;;;18.70;15.38;;;;;;;2.97;100.00;99067.67;1717666;82;21093;-75
2021/12/09 11:32:48;;;;;;;25.45;14.93;;;;;;;2.92;100.00;99070.75;1687217;84;21082;-75
2021/12/09 11:35:24;;;;;;;15.03;11.30;;;;;;;2.95;100.00;99071.98;1651047;84;21088;-74
2021/12/09 11:38:06;;;;;;;17.70;13.90;;;;;;;3.06;100.00;99075.20;1681654;84;21181;-75
2021/12/09 11:40:39;;;;;;;13.38;11.18;;;;;;;3.15;100.00;99070.35;1673883;84;21127;-75
2021/12/09 11:43:04;;;;;;;16.75;10.98;;;;;;;3.21;100.00;99071.06;1657602;86;21626;-76
2021/12/09 11:45:38;;;;;;;13.88;10.30;;;;;;;3.20;100.00;99075.80;1660883;86;21088;-76